sensor_id;sensor_type;location;lat;lon;timestamp;P1;durP1;ratioP1;P2;durP2;ratioP2
72639;SDS011;60683;51.730;8.762;2023-04-25T00:01:47;6.90;;;2.67;;
72639;SDS011;60683;51.730;8.762;2023-04-25T00:04:17;8.13;;;3.05;;
72639;SDS011;60683;51.730;8.762;2023-04-25T00:06:44;6.97;;;3.13;;
72639;SDS011;60683;51.730;8.762;2023-04-25T00:09:12;5.55;;;2.63;;
72639;SDS011;60683;51.730;8.762;2023-04-25T00:11:40;7.65;;;3.15;;
72639;SDS011;60683;51.730;8.762;2023-04-25T00:14:09;5.80;;;3.08;;
72639;SDS011;60683;51.730;8.762;2023-04-25T00:16:36;5.07;;;2.30;;
72639;SDS011;60683;51.730;8.762;2023-04-25T00:19:04;10.93;;;3.70;;
72639;SDS011;60683;51.730;8.762;2023-04-25T00:21:32;6.20;;;2.85;;
72639;SDS011;60683;51.730;8.762;2023-04-25T00:24:01;5.13;;;2.33;;
72639;SDS011;60683;51.730;8.762;2023-04-25T00:26:28;10.68;;;3.78;;
72639;SDS011;60683;51.730;8.762;2023-04-25T00:28:56;8.13;;;2.78;;
72639;SDS011;60683;51.730;8.762;2023-04-25T00:31:25;8.02;;;3.13;;
72639;SDS011;60683;51.730;8.762;2023-04-25T00:33:53;8.52;;;3.35;;
72639;SDS011;60683;51.730;8.762;2023-04-25T00:36:20;5.57;;;2.65;;
72639;SDS011;60683;51.730;8.762;2023-04-25T00:38:48;13.75;;;3.08;;
72639;SDS011;60683;51.730;8.762;2023-04-25T00:41:16;13.90;;;4.18;;
72639;SDS011;60683;51.730;8.762;2023-04-25T00:43:43;9.13;;;2.70;;
72639;SDS011;60683;51.730;8.762;2023-04-25T00:46:12;9.63;;;3.38;;
72639;SDS011;60683;51.730;8.762;2023-04-25T00:48:40;7.70;;;2.90;;
72639;SDS011;60683;51.730;8.762;2023-04-25T00:51:08;8.10;;;3.45;;
72639;SDS011;60683;51.730;8.762;2023-04-25T00:53:39;5.60;;;2.25;;
72639;SDS011;60683;51.730;8.762;2023-04-25T00:56:07;7.97;;;2.75;;
72639;SDS011;60683;51.730;8.762;2023-04-25T00:58:34;9.82;;;3.50;;
72639;SDS011;60683;51.730;8.762;2023-04-25T01:01:02;9.77;;;3.50;;
72639;SDS011;60683;51.730;8.762;2023-04-25T01:03:30;10.63;;;3.17;;
72639;SDS011;60683;51.730;8.762;2023-04-25T02:11:02;6.90;;;3.03;;
72639;SDS011;60683;51.730;8.762;2023-04-25T02:13:30;6.47;;;3.08;;
72639;SDS011;60683;51.730;8.762;2023-04-25T02:15:58;8.15;;;3.47;;
72639;SDS011;60683;51.730;8.762;2023-04-25T02:18:25;11.45;;;5.18;;
72639;SDS011;60683;51.730;8.762;2023-04-25T02:20:53;11.65;;;4.80;;
72639;SDS011;60683;51.730;8.762;2023-04-25T02:23:20;14.40;;;5.30;;
72639;SDS011;60683;51.730;8.762;2023-04-25T02:25:48;10.77;;;4.40;;
72639;SDS011;60683;51.730;8.762;2023-04-25T02:28:17;12.45;;;3.30;;
72639;SDS011;60683;51.730;8.762;2023-04-25T02:30:44;9.57;;;4.03;;
72639;SDS011;60683;51.730;8.762;2023-04-25T02:33:12;13.85;;;5.82;;
72639;SDS011;60683;51.730;8.762;2023-04-25T02:35:42;9.23;;;4.57;;
72639;SDS011;60683;51.730;8.762;2023-04-25T02:38:10;9.73;;;3.70;;
72639;SDS011;60683;51.730;8.762;2023-04-25T02:40:37;9.50;;;4.65;;
72639;SDS011;60683;51.730;8.762;2023-04-25T02:43:05;7.93;;;3.83;;
72639;SDS011;60683;51.730;8.762;2023-04-25T02:45:34;14.13;;;6.32;;
72639;SDS011;60683;51.730;8.762;2023-04-25T02:48:04;9.88;;;4.38;;
72639;SDS011;60683;51.730;8.762;2023-04-25T02:50:32;10.15;;;4.10;;
72639;SDS011;60683;51.730;8.762;2023-04-25T02:52:59;10.30;;;4.47;;
72639;SDS011;60683;51.730;8.762;2023-04-25T02:55:26;11.93;;;6.75;;
72639;SDS011;60683;51.730;8.762;2023-04-25T02:57:54;14.15;;;5.80;;
72639;SDS011;60683;51.730;8.762;2023-04-25T03:00:22;23.33;;;7.85;;
72639;SDS011;60683;51.730;8.762;2023-04-25T03:02:51;14.88;;;6.95;;
72639;SDS011;60683;51.730;8.762;2023-04-25T03:05:18;15.32;;;6.22;;
72639;SDS011;60683;51.730;8.762;2023-04-25T03:07:46;9.93;;;4.90;;
72639;SDS011;60683;51.730;8.762;2023-04-25T03:10:14;17.55;;;7.20;;
72639;SDS011;60683;51.730;8.762;2023-04-25T03:12:42;14.38;;;6.10;;
72639;SDS011;60683;51.730;8.762;2023-04-25T03:15:09;13.23;;;6.78;;
72639;SDS011;60683;51.730;8.762;2023-04-25T03:17:37;12.48;;;6.00;;
72639;SDS011;60683;51.730;8.762;2023-04-25T03:20:07;14.73;;;6.38;;
72639;SDS011;60683;51.730;8.762;2023-04-25T03:22:36;13.73;;;6.15;;
72639;SDS011;60683;51.730;8.762;2023-04-25T03:25:03;15.32;;;7.75;;
72639;SDS011;60683;51.730;8.762;2023-04-25T03:27:33;8.45;;;4.85;;
72639;SDS011;60683;51.730;8.762;2023-04-25T03:30:00;15.02;;;6.75;;
72639;SDS011;60683;51.730;8.762;2023-04-25T03:32:28;17.60;;;7.95;;
72639;SDS011;60683;51.730;8.762;2023-04-25T03:34:56;17.50;;;6.20;;
72639;SDS011;60683;51.730;8.762;2023-04-25T03:37:25;15.00;;;6.75;;
72639;SDS011;60683;51.730;8.762;2023-04-25T03:39:52;12.90;;;5.20;;
72639;SDS011;60683;51.730;8.762;2023-04-25T03:42:20;12.02;;;5.75;;
72639;SDS011;60683;51.730;8.762;2023-04-25T03:44:48;16.48;;;6.35;;
72639;SDS011;60683;51.730;8.762;2023-04-25T03:47:17;13.00;;;5.63;;
72639;SDS011;60683;51.730;8.762;2023-04-25T03:49:44;14.82;;;6.38;;
72639;SDS011;60683;51.730;8.762;2023-04-25T03:52:12;16.08;;;6.35;;
72639;SDS011;60683;51.730;8.762;2023-04-25T03:54:41;13.70;;;5.53;;
72639;SDS011;60683;51.730;8.762;2023-04-25T03:57:09;10.25;;;4.75;;
72639;SDS011;60683;51.730;8.762;2023-04-25T03:59:36;11.93;;;5.38;;
72639;SDS011;60683;51.730;8.762;2023-04-25T04:02:04;14.68;;;4.25;;
72639;SDS011;60683;51.730;8.762;2023-04-25T04:04:31;13.70;;;4.72;;
72639;SDS011;60683;51.730;8.762;2023-04-25T04:06:59;9.48;;;3.50;;
72639;SDS011;60683;51.730;8.762;2023-04-25T04:09:26;7.10;;;3.15;;
72639;SDS011;60683;51.730;8.762;2023-04-25T04:11:56;8.20;;;3.33;;
72639;SDS011;60683;51.730;8.762;2023-04-25T04:14:23;13.40;;;3.35;;
72639;SDS011;60683;51.730;8.762;2023-04-25T04:16:51;9.75;;;3.20;;
72639;SDS011;60683;51.730;8.762;2023-04-25T04:19:18;11.90;;;3.75;;
72639;SDS011;60683;51.730;8.762;2023-04-25T04:21:46;8.52;;;3.65;;
72639;SDS011;60683;51.730;8.762;2023-04-25T04:24:14;10.65;;;3.75;;
72639;SDS011;60683;51.730;8.762;2023-04-25T04:26:43;12.68;;;4.07;;
72639;SDS011;60683;51.730;8.762;2023-04-25T04:29:12;10.43;;;3.50;;
72639;SDS011;60683;51.730;8.762;2023-04-25T04:31:47;8.30;;;2.80;;
72639;SDS011;60683;51.730;8.762;2023-04-25T04:34:15;13.57;;;3.85;;
72639;SDS011;60683;51.730;8.762;2023-04-25T04:36:44;12.30;;;4.00;;
72639;SDS011;60683;51.730;8.762;2023-04-25T04:39:11;8.23;;;3.70;;
72639;SDS011;60683;51.730;8.762;2023-04-25T04:41:40;10.05;;;4.38;;
72639;SDS011;60683;51.730;8.762;2023-04-25T04:44:07;9.98;;;4.25;;
72639;SDS011;60683;51.730;8.762;2023-04-25T04:46:37;8.82;;;3.50;;
72639;SDS011;60683;51.730;8.762;2023-04-25T04:49:07;16.05;;;4.38;;
72639;SDS011;60683;51.730;8.762;2023-04-25T04:51:36;10.05;;;4.00;;
72639;SDS011;60683;51.730;8.762;2023-04-25T04:54:03;14.35;;;4.45;;
72639;SDS011;60683;51.730;8.762;2023-04-25T04:56:31;10.10;;;3.75;;
72639;SDS011;60683;51.730;8.762;2023-04-25T04:58:59;9.52;;;3.10;;
72639;SDS011;60683;51.730;8.762;2023-04-25T05:01:27;9.93;;;3.38;;
72639;SDS011;60683;51.730;8.762;2023-04-25T05:03:57;11.68;;;4.15;;
72639;SDS011;60683;51.730;8.762;2023-04-25T05:06:26;12.32;;;4.95;;
72639;SDS011;60683;51.730;8.762;2023-04-25T05:08:54;14.40;;;3.58;;
72639;SDS011;60683;51.730;8.762;2023-04-25T05:11:22;8.75;;;3.53;;
72639;SDS011;60683;51.730;8.762;2023-04-25T05:13:51;5.60;;;2.90;;
72639;SDS011;60683;51.730;8.762;2023-04-25T05:16:19;11.57;;;3.50;;
72639;SDS011;60683;51.730;8.762;2023-04-25T05:18:47;13.73;;;3.30;;
72639;SDS011;60683;51.730;8.762;2023-04-25T05:21:17;13.38;;;3.50;;
72639;SDS011;60683;51.730;8.762;2023-04-25T05:23:47;9.13;;;2.92;;
72639;SDS011;60683;51.730;8.762;2023-04-25T05:26:15;5.00;;;2.72;;
72639;SDS011;60683;51.730;8.762;2023-04-25T05:28:43;9.75;;;3.58;;
72639;SDS011;60683;51.730;8.762;2023-04-25T05:31:11;11.02;;;3.78;;
72639;SDS011;60683;51.730;8.762;2023-04-25T05:33:38;8.38;;;2.97;;
72639;SDS011;60683;51.730;8.762;2023-04-25T05:36:06;7.25;;;2.83;;
72639;SDS011;60683;51.730;8.762;2023-04-25T05:38:36;11.60;;;3.20;;
72639;SDS011;60683;51.730;8.762;2023-04-25T05:41:04;11.48;;;3.47;;
72639;SDS011;60683;51.730;8.762;2023-04-25T05:43:31;10.23;;;3.08;;
72639;SDS011;60683;51.730;8.762;2023-04-25T05:45:59;10.95;;;2.50;;
72639;SDS011;60683;51.730;8.762;2023-04-25T05:48:27;10.20;;;3.70;;
72639;SDS011;60683;51.730;8.762;2023-04-25T05:50:54;13.07;;;3.55;;
72639;SDS011;60683;51.730;8.762;2023-04-25T05:53:22;12.85;;;2.42;;
72639;SDS011;60683;51.730;8.762;2023-04-25T05:55:51;12.07;;;3.10;;
72639;SDS011;60683;51.730;8.762;2023-04-25T05:58:18;14.45;;;3.83;;
72639;SDS011;60683;51.730;8.762;2023-04-25T06:00:46;8.07;;;2.88;;
72639;SDS011;60683;51.730;8.762;2023-04-25T06:03:14;8.55;;;3.00;;
72639;SDS011;60683;51.730;8.762;2023-04-25T06:05:42;10.18;;;3.63;;
72639;SDS011;60683;51.730;8.762;2023-04-25T06:08:10;12.07;;;3.88;;
72639;SDS011;60683;51.730;8.762;2023-04-25T06:10:37;7.72;;;2.35;;
72639;SDS011;60683;51.730;8.762;2023-04-25T06:13:06;12.82;;;2.70;;
72639;SDS011;60683;51.730;8.762;2023-04-25T06:15:34;6.43;;;2.70;;
72639;SDS011;60683;51.730;8.762;2023-04-25T06:18:02;10.15;;;2.72;;
72639;SDS011;60683;51.730;8.762;2023-04-25T06:20:29;8.57;;;3.55;;
72639;SDS011;60683;51.730;8.762;2023-04-25T06:22:57;12.25;;;3.13;;
72639;SDS011;60683;51.730;8.762;2023-04-25T06:25:25;10.30;;;2.80;;
72639;SDS011;60683;51.730;8.762;2023-04-25T06:27:52;10.48;;;2.92;;
72639;SDS011;60683;51.730;8.762;2023-04-25T06:30:21;9.32;;;3.35;;
72639;SDS011;60683;51.730;8.762;2023-04-25T06:32:51;11.38;;;3.30;;
72639;SDS011;60683;51.730;8.762;2023-04-25T06:35:19;16.02;;;3.70;;
72639;SDS011;60683;51.730;8.762;2023-04-25T06:37:46;9.75;;;2.80;;
72639;SDS011;60683;51.730;8.762;2023-04-25T06:40:14;11.63;;;3.33;;
72639;SDS011;60683;51.730;8.762;2023-04-25T06:42:43;5.35;;;2.42;;
72639;SDS011;60683;51.730;8.762;2023-04-25T06:45:10;9.23;;;2.75;;
72639;SDS011;60683;51.730;8.762;2023-04-25T06:47:40;13.88;;;4.20;;
72639;SDS011;60683;51.730;8.762;2023-04-25T06:50:08;6.68;;;2.35;;
72639;SDS011;60683;51.730;8.762;2023-04-25T06:52:36;5.93;;;2.13;;
72639;SDS011;60683;51.730;8.762;2023-04-25T06:55:04;9.45;;;2.83;;
72639;SDS011;60683;51.730;8.762;2023-04-25T06:57:32;11.55;;;3.00;;
72639;SDS011;60683;51.730;8.762;2023-04-25T07:00:00;6.03;;;2.58;;
72639;SDS011;60683;51.730;8.762;2023-04-25T07:02:27;14.13;;;2.53;;
72639;SDS011;60683;51.730;8.762;2023-04-25T07:04:57;7.22;;;2.70;;
72639;SDS011;60683;51.730;8.762;2023-04-25T07:07:25;8.68;;;2.20;;
72639;SDS011;60683;51.730;8.762;2023-04-25T07:09:53;6.50;;;2.05;;
72639;SDS011;60683;51.730;8.762;2023-04-25T07:12:20;7.75;;;2.90;;
72639;SDS011;60683;51.730;8.762;2023-04-25T07:14:48;9.15;;;2.50;;
72639;SDS011;60683;51.730;8.762;2023-04-25T07:17:15;7.68;;;2.15;;
72639;SDS011;60683;51.730;8.762;2023-04-25T07:19:43;8.10;;;2.53;;
72639;SDS011;60683;51.730;8.762;2023-04-25T07:22:12;6.70;;;2.00;;
72639;SDS011;60683;51.730;8.762;2023-04-25T07:24:39;4.78;;;1.73;;
72639;SDS011;60683;51.730;8.762;2023-04-25T07:27:07;7.43;;;1.77;;
72639;SDS011;60683;51.730;8.762;2023-04-25T07:29:34;4.20;;;2.13;;
72639;SDS011;60683;51.730;8.762;2023-04-25T07:32:03;8.77;;;1.83;;
72639;SDS011;60683;51.730;8.762;2023-04-25T07:34:31;7.00;;;1.40;;
72639;SDS011;60683;51.730;8.762;2023-04-25T07:36:58;7.47;;;1.85;;
72639;SDS011;60683;51.730;8.762;2023-04-25T07:39:27;5.65;;;1.67;;
72639;SDS011;60683;51.730;8.762;2023-04-25T07:41:55;7.93;;;2.40;;
72639;SDS011;60683;51.730;8.762;2023-04-25T07:44:24;6.63;;;2.20;;
72639;SDS011;60683;51.730;8.762;2023-04-25T07:46:52;9.57;;;2.63;;
72639;SDS011;60683;51.730;8.762;2023-04-25T07:49:20;5.75;;;1.65;;
72639;SDS011;60683;51.730;8.762;2023-04-25T07:51:47;10.02;;;2.25;;
72639;SDS011;60683;51.730;8.762;2023-04-25T07:54:17;2.80;;;1.35;;
72639;SDS011;60683;51.730;8.762;2023-04-25T07:56:45;7.70;;;1.92;;
72639;SDS011;60683;51.730;8.762;2023-04-25T07:59:13;6.60;;;1.58;;
72639;SDS011;60683;51.730;8.762;2023-04-25T08:01:40;11.02;;;2.03;;
72639;SDS011;60683;51.730;8.762;2023-04-25T08:04:08;7.45;;;1.17;;
72639;SDS011;60683;51.730;8.762;2023-04-25T08:06:35;6.28;;;1.80;;
72639;SDS011;60683;51.730;8.762;2023-04-25T08:09:03;5.50;;;1.52;;
72639;SDS011;60683;51.730;8.762;2023-04-25T08:11:31;8.07;;;1.77;;
72639;SDS011;60683;51.730;8.762;2023-04-25T08:14:00;11.18;;;2.08;;
72639;SDS011;60683;51.730;8.762;2023-04-25T08:16:27;3.00;;;0.95;;
72639;SDS011;60683;51.730;8.762;2023-04-25T08:18:55;7.63;;;2.33;;
72639;SDS011;60683;51.730;8.762;2023-04-25T08:21:22;2.97;;;0.90;;
72639;SDS011;60683;51.730;8.762;2023-04-25T08:23:50;9.95;;;1.75;;
72639;SDS011;60683;51.730;8.762;2023-04-25T08:26:17;8.95;;;1.48;;
72639;SDS011;60683;51.730;8.762;2023-04-25T08:28:45;5.25;;;1.30;;
72639;SDS011;60683;51.730;8.762;2023-04-25T08:31:14;4.70;;;1.40;;
72639;SDS011;60683;51.730;8.762;2023-04-25T08:33:42;6.10;;;1.33;;
72639;SDS011;60683;51.730;8.762;2023-04-25T08:36:10;9.68;;;1.67;;
72639;SDS011;60683;51.730;8.762;2023-04-25T08:38:38;6.55;;;1.40;;
72639;SDS011;60683;51.730;8.762;2023-04-25T08:41:05;4.22;;;1.10;;
72639;SDS011;60683;51.730;8.762;2023-04-25T08:43:33;12.38;;;2.00;;
72639;SDS011;60683;51.730;8.762;2023-04-25T08:46:01;7.13;;;1.38;;
72639;SDS011;60683;51.730;8.762;2023-04-25T08:48:32;5.18;;;1.30;;
72639;SDS011;60683;51.730;8.762;2023-04-25T08:51:00;3.67;;;1.10;;
72639;SDS011;60683;51.730;8.762;2023-04-25T08:53:30;3.45;;;1.50;;
72639;SDS011;60683;51.730;8.762;2023-04-25T08:56:00;5.30;;;1.15;;
72639;SDS011;60683;51.730;8.762;2023-04-25T08:58:28;7.97;;;1.90;;
72639;SDS011;60683;51.730;8.762;2023-04-25T09:00:56;6.50;;;1.92;;
72639;SDS011;60683;51.730;8.762;2023-04-25T09:03:23;3.88;;;0.95;;
72639;SDS011;60683;51.730;8.762;2023-04-25T09:05:52;6.00;;;1.88;;
72639;SDS011;60683;51.730;8.762;2023-04-25T09:08:21;5.40;;;1.33;;
72639;SDS011;60683;51.730;8.762;2023-04-25T09:10:48;4.90;;;1.25;;
72639;SDS011;60683;51.730;8.762;2023-04-25T09:13:23;4.85;;;1.55;;
72639;SDS011;60683;51.730;8.762;2023-04-25T09:15:52;5.07;;;1.60;;
72639;SDS011;60683;51.730;8.762;2023-04-25T09:18:24;5.20;;;0.98;;
72639;SDS011;60683;51.730;8.762;2023-04-25T09:20:54;4.05;;;1.20;;
72639;SDS011;60683;51.730;8.762;2023-04-25T09:23:22;4.53;;;1.50;;
72639;SDS011;60683;51.730;8.762;2023-04-25T09:25:50;6.85;;;1.30;;
72639;SDS011;60683;51.730;8.762;2023-04-25T09:28:22;4.65;;;1.38;;
72639;SDS011;60683;51.730;8.762;2023-04-25T09:30:54;3.92;;;0.80;;
72639;SDS011;60683;51.730;8.762;2023-04-25T09:33:27;5.63;;;1.23;;
72639;SDS011;60683;51.730;8.762;2023-04-25T09:38:31;4.40;;;1.20;;
72639;SDS011;60683;51.730;8.762;2023-04-25T09:40:59;4.93;;;1.35;;
72639;SDS011;60683;51.730;8.762;2023-04-25T09:43:27;2.75;;;1.00;;
72639;SDS011;60683;51.730;8.762;2023-04-25T09:45:55;2.85;;;0.80;;
72639;SDS011;60683;51.730;8.762;2023-04-25T09:48:26;4.57;;;0.93;;
72639;SDS011;60683;51.730;8.762;2023-04-25T09:51:04;4.15;;;1.58;;
72639;SDS011;60683;51.730;8.762;2023-04-25T09:53:33;6.22;;;1.02;;
72639;SDS011;60683;51.730;8.762;2023-04-25T09:56:02;5.28;;;0.80;;
72639;SDS011;60683;51.730;8.762;2023-04-25T09:58:33;4.82;;;1.05;;
72639;SDS011;60683;51.730;8.762;2023-04-25T10:01:01;4.80;;;1.20;;
72639;SDS011;60683;51.730;8.762;2023-04-25T10:03:30;2.53;;;1.17;;
72639;SDS011;60683;51.730;8.762;2023-04-25T10:05:59;4.70;;;1.15;;
72639;SDS011;60683;51.730;8.762;2023-04-25T10:08:30;1.90;;;0.47;;
72639;SDS011;60683;51.730;8.762;2023-04-25T10:10:59;3.72;;;0.98;;
72639;SDS011;60683;51.730;8.762;2023-04-25T10:13:28;4.63;;;1.10;;
72639;SDS011;60683;51.730;8.762;2023-04-25T10:15:56;3.60;;;0.70;;
72639;SDS011;60683;51.730;8.762;2023-04-25T10:18:25;2.72;;;0.90;;
72639;SDS011;60683;51.730;8.762;2023-04-25T10:20:53;2.53;;;1.00;;
72639;SDS011;60683;51.730;8.762;2023-04-25T10:23:21;4.55;;;1.08;;
72639;SDS011;60683;51.730;8.762;2023-04-25T10:25:51;2.75;;;0.82;;
72639;SDS011;60683;51.730;8.762;2023-04-25T10:28:20;3.22;;;1.00;;
72639;SDS011;60683;51.730;8.762;2023-04-25T10:30:57;3.03;;;0.80;;
72639;SDS011;60683;51.730;8.762;2023-04-25T10:33:29;3.05;;;0.93;;
72639;SDS011;60683;51.730;8.762;2023-04-25T10:35:57;1.77;;;0.60;;
72639;SDS011;60683;51.730;8.762;2023-04-25T10:38:25;1.90;;;0.70;;
72639;SDS011;60683;51.730;8.762;2023-04-25T10:43:38;7.35;;;1.17;;
72639;SDS011;60683;51.730;8.762;2023-04-25T10:46:12;2.60;;;0.98;;
72639;SDS011;60683;51.730;8.762;2023-04-25T10:48:45;1.38;;;0.43;;
72639;SDS011;60683;51.730;8.762;2023-04-25T10:51:18;2.50;;;0.73;;
72639;SDS011;60683;51.730;8.762;2023-04-25T10:53:56;5.28;;;1.00;;
72639;SDS011;60683;51.730;8.762;2023-04-25T10:56:26;4.90;;;0.90;;
72639;SDS011;60683;51.730;8.762;2023-04-25T10:59:07;2.55;;;0.55;;
72639;SDS011;60683;51.730;8.762;2023-04-25T11:01:36;1.40;;;0.73;;
72639;SDS011;60683;51.730;8.762;2023-04-25T11:04:05;2.75;;;0.95;;
72639;SDS011;60683;51.730;8.762;2023-04-25T11:06:36;3.72;;;1.10;;
72639;SDS011;60683;51.730;8.762;2023-04-25T11:09:10;3.05;;;0.80;;
72639;SDS011;60683;51.730;8.762;2023-04-25T11:11:41;5.50;;;1.35;;
72639;SDS011;60683;51.730;8.762;2023-04-25T11:14:08;2.63;;;0.95;;
72639;SDS011;60683;51.730;8.762;2023-04-25T11:16:36;4.88;;;1.17;;
72639;SDS011;60683;51.730;8.762;2023-04-25T11:19:04;3.10;;;0.82;;
72639;SDS011;60683;51.730;8.762;2023-04-25T11:21:31;5.68;;;0.93;;
72639;SDS011;60683;51.730;8.762;2023-04-25T11:23:59;6.22;;;0.90;;
72639;SDS011;60683;51.730;8.762;2023-04-25T11:26:26;5.53;;;1.20;;
72639;SDS011;60683;51.730;8.762;2023-04-25T11:28:58;2.25;;;1.00;;
72639;SDS011;60683;51.730;8.762;2023-04-25T11:31:26;4.35;;;1.20;;
72639;SDS011;60683;51.730;8.762;2023-04-25T11:33:54;3.38;;;0.82;;
72639;SDS011;60683;51.730;8.762;2023-04-25T11:36:22;5.57;;;1.15;;
72639;SDS011;60683;51.730;8.762;2023-04-25T11:38:50;2.25;;;0.63;;
72639;SDS011;60683;51.730;8.762;2023-04-25T11:41:17;1.75;;;0.70;;
72639;SDS011;60683;51.730;8.762;2023-04-25T11:43:45;2.72;;;0.90;;
72639;SDS011;60683;51.730;8.762;2023-04-25T11:46:14;1.27;;;0.60;;
72639;SDS011;60683;51.730;8.762;2023-04-25T11:48:42;2.10;;;0.82;;
72639;SDS011;60683;51.730;8.762;2023-04-25T11:51:13;3.17;;;1.38;;
72639;SDS011;60683;51.730;8.762;2023-04-25T11:53:41;3.53;;;0.80;;
72639;SDS011;60683;51.730;8.762;2023-04-25T11:56:09;2.10;;;0.50;;
72639;SDS011;60683;51.730;8.762;2023-04-25T11:58:53;6.60;;;1.42;;
72639;SDS011;60683;51.730;8.762;2023-04-25T12:01:26;2.40;;;0.93;;
72639;SDS011;60683;51.730;8.762;2023-04-25T12:03:54;0.90;;;0.50;;
72639;SDS011;60683;51.730;8.762;2023-04-25T12:06:25;4.90;;;1.30;;
72639;SDS011;60683;51.730;8.762;2023-04-25T12:09:00;6.00;;;0.90;;
72639;SDS011;60683;51.730;8.762;2023-04-25T12:11:29;2.70;;;0.95;;
72639;SDS011;60683;51.730;8.762;2023-04-25T12:14:01;2.67;;;0.80;;
72639;SDS011;60683;51.730;8.762;2023-04-25T12:16:31;3.25;;;0.68;;
72639;SDS011;60683;51.730;8.762;2023-04-25T12:19:07;2.45;;;0.98;;
72639;SDS011;60683;51.730;8.762;2023-04-25T12:21:35;3.13;;;1.00;;
72639;SDS011;60683;51.730;8.762;2023-04-25T12:24:12;2.97;;;0.75;;
72639;SDS011;60683;51.730;8.762;2023-04-25T12:26:51;2.97;;;0.63;;
72639;SDS011;60683;51.730;8.762;2023-04-25T12:29:21;2.25;;;0.60;;
72639;SDS011;60683;51.730;8.762;2023-04-25T12:31:51;3.10;;;0.68;;
72639;SDS011;60683;51.730;8.762;2023-04-25T12:34:21;2.22;;;0.77;;
72639;SDS011;60683;51.730;8.762;2023-04-25T12:36:49;3.08;;;1.05;;
72639;SDS011;60683;51.730;8.762;2023-04-25T12:39:17;2.30;;;0.73;;
72639;SDS011;60683;51.730;8.762;2023-04-25T12:41:45;2.80;;;0.70;;
72639;SDS011;60683;51.730;8.762;2023-04-25T12:44:13;3.88;;;0.80;;
72639;SDS011;60683;51.730;8.762;2023-04-25T12:46:41;4.20;;;1.15;;
72639;SDS011;60683;51.730;8.762;2023-04-25T12:49:10;2.70;;;0.93;;
72639;SDS011;60683;51.730;8.762;2023-04-25T12:51:37;6.68;;;1.00;;
72639;SDS011;60683;51.730;8.762;2023-04-25T12:54:05;6.57;;;1.15;;
72639;SDS011;60683;51.730;8.762;2023-04-25T12:56:34;2.13;;;0.68;;
72639;SDS011;60683;51.730;8.762;2023-04-25T12:59:02;3.90;;;0.93;;
72639;SDS011;60683;51.730;8.762;2023-04-25T13:01:29;2.88;;;1.13;;
72639;SDS011;60683;51.730;8.762;2023-04-25T13:03:57;4.22;;;1.00;;
72639;SDS011;60683;51.730;8.762;2023-04-25T13:06:26;3.97;;;0.95;;
72639;SDS011;60683;51.730;8.762;2023-04-25T13:08:56;12.35;;;1.30;;
72639;SDS011;60683;51.730;8.762;2023-04-25T13:11:23;2.47;;;0.88;;
72639;SDS011;60683;51.730;8.762;2023-04-25T13:13:50;2.63;;;0.75;;
72639;SDS011;60683;51.730;8.762;2023-04-25T13:16:18;2.63;;;0.73;;
72639;SDS011;60683;51.730;8.762;2023-04-25T13:18:46;5.88;;;1.25;;
72639;SDS011;60683;51.730;8.762;2023-04-25T13:21:14;3.78;;;0.80;;
72639;SDS011;60683;51.730;8.762;2023-04-25T13:23:43;4.35;;;1.20;;
72639;SDS011;60683;51.730;8.762;2023-04-25T13:26:12;3.67;;;1.05;;
72639;SDS011;60683;51.730;8.762;2023-04-25T13:28:39;2.00;;;0.73;;
72639;SDS011;60683;51.730;8.762;2023-04-25T13:31:07;2.10;;;1.02;;
72639;SDS011;60683;51.730;8.762;2023-04-25T13:33:35;1.65;;;0.65;;
72639;SDS011;60683;51.730;8.762;2023-04-25T13:36:03;2.88;;;0.60;;
72639;SDS011;60683;51.730;8.762;2023-04-25T13:38:31;3.97;;;1.02;;
72639;SDS011;60683;51.730;8.762;2023-04-25T13:41:00;4.78;;;1.17;;
72639;SDS011;60683;51.730;8.762;2023-04-25T13:43:27;4.50;;;1.00;;
72639;SDS011;60683;51.730;8.762;2023-04-25T13:45:55;1.95;;;0.70;;
72639;SDS011;60683;51.730;8.762;2023-04-25T13:48:23;3.00;;;1.55;;
72639;SDS011;60683;51.730;8.762;2023-04-25T13:50:51;2.65;;;1.40;;
72639;SDS011;60683;51.730;8.762;2023-04-25T13:53:18;5.15;;;1.60;;
72639;SDS011;60683;51.730;8.762;2023-04-25T13:55:46;2.25;;;0.73;;
72639;SDS011;60683;51.730;8.762;2023-04-25T13:58:15;7.25;;;1.35;;
72639;SDS011;60683;51.730;8.762;2023-04-25T14:00:43;3.50;;;0.65;;
72639;SDS011;60683;51.730;8.762;2023-04-25T14:03:12;4.25;;;1.00;;
72639;SDS011;60683;51.730;8.762;2023-04-25T14:05:39;1.05;;;0.60;;
72639;SDS011;60683;51.730;8.762;2023-04-25T14:08:07;0.68;;;0.38;;
72639;SDS011;60683;51.730;8.762;2023-04-25T14:10:35;2.28;;;0.82;;
72639;SDS011;60683;51.730;8.762;2023-04-25T14:13:03;2.50;;;0.50;;
72639;SDS011;60683;51.730;8.762;2023-04-25T14:15:32;2.83;;;0.60;;
72639;SDS011;60683;51.730;8.762;2023-04-25T14:18:00;1.75;;;0.63;;
72639;SDS011;60683;51.730;8.762;2023-04-25T14:20:28;2.22;;;1.23;;
72639;SDS011;60683;51.730;8.762;2023-04-25T14:22:56;1.88;;;0.70;;
72639;SDS011;60683;51.730;8.762;2023-04-25T14:25:25;1.65;;;0.65;;
72639;SDS011;60683;51.730;8.762;2023-04-25T14:27:53;2.20;;;0.70;;
72639;SDS011;60683;51.730;8.762;2023-04-25T14:30:20;3.95;;;0.90;;
72639;SDS011;60683;51.730;8.762;2023-04-25T14:32:49;2.92;;;1.02;;
72639;SDS011;60683;51.730;8.762;2023-04-25T14:35:17;5.93;;;0.85;;
72639;SDS011;60683;51.730;8.762;2023-04-25T14:37:45;2.53;;;0.70;;
72639;SDS011;60683;51.730;8.762;2023-04-25T14:40:13;1.27;;;0.55;;
72639;SDS011;60683;51.730;8.762;2023-04-25T14:42:41;1.33;;;0.75;;
72639;SDS011;60683;51.730;8.762;2023-04-25T14:45:09;2.22;;;0.68;;
72639;SDS011;60683;51.730;8.762;2023-04-25T14:47:37;1.65;;;0.90;;
72639;SDS011;60683;51.730;8.762;2023-04-25T14:50:07;3.25;;;0.98;;
72639;SDS011;60683;51.730;8.762;2023-04-25T14:52:35;1.27;;;0.50;;
72639;SDS011;60683;51.730;8.762;2023-04-25T14:55:03;6.85;;;1.10;;
72639;SDS011;60683;51.730;8.762;2023-04-25T14:57:31;2.97;;;0.77;;
72639;SDS011;60683;51.730;8.762;2023-04-25T14:59:59;3.45;;;0.65;;
72639;SDS011;60683;51.730;8.762;2023-04-25T15:02:27;2.20;;;0.80;;
72639;SDS011;60683;51.730;8.762;2023-04-25T15:04:55;1.90;;;0.60;;
72639;SDS011;60683;51.730;8.762;2023-04-25T15:07:24;5.88;;;0.73;;
72639;SDS011;60683;51.730;8.762;2023-04-25T15:09:51;0.90;;;0.50;;
72639;SDS011;60683;51.730;8.762;2023-04-25T15:12:21;4.45;;;0.90;;
72639;SDS011;60683;51.730;8.762;2023-04-25T15:14:49;1.58;;;0.63;;
72639;SDS011;60683;51.730;8.762;2023-04-25T15:17:16;4.47;;;1.25;;
72639;SDS011;60683;51.730;8.762;2023-04-25T15:19:44;4.13;;;1.25;;
72639;SDS011;60683;51.730;8.762;2023-04-25T15:22:11;2.67;;;1.27;;
72639;SDS011;60683;51.730;8.762;2023-04-25T15:24:40;2.58;;;1.13;;
72639;SDS011;60683;51.730;8.762;2023-04-25T15:27:08;2.90;;;0.90;;
72639;SDS011;60683;51.730;8.762;2023-04-25T15:29:35;3.22;;;0.57;;
72639;SDS011;60683;51.730;8.762;2023-04-25T15:32:02;3.45;;;1.20;;
72639;SDS011;60683;51.730;8.762;2023-04-25T15:34:30;2.95;;;0.95;;
72639;SDS011;60683;51.730;8.762;2023-04-25T15:36:58;4.80;;;1.15;;
72639;SDS011;60683;51.730;8.762;2023-04-25T15:39:26;3.00;;;0.70;;
72639;SDS011;60683;51.730;8.762;2023-04-25T15:41:54;3.15;;;1.20;;
72639;SDS011;60683;51.730;8.762;2023-04-25T15:44:22;3.53;;;1.10;;
72639;SDS011;60683;51.730;8.762;2023-04-25T15:46:50;3.63;;;1.48;;
72639;SDS011;60683;51.730;8.762;2023-04-25T15:49:17;6.10;;;1.27;;
72639;SDS011;60683;51.730;8.762;2023-04-25T15:51:46;3.75;;;1.00;;
72639;SDS011;60683;51.730;8.762;2023-04-25T15:54:14;4.03;;;1.52;;
72639;SDS011;60683;51.730;8.762;2023-04-25T15:56:42;3.13;;;0.98;;
72639;SDS011;60683;51.730;8.762;2023-04-25T15:59:12;3.60;;;1.17;;
72639;SDS011;60683;51.730;8.762;2023-04-25T16:01:40;2.80;;;0.70;;
72639;SDS011;60683;51.730;8.762;2023-04-25T16:04:07;1.33;;;0.52;;